Time;durP1;ratioP1;P1;durP2;ratioP2;P2;SDS_P1;SDS_P2;PMS_P1;PMS_P2;Temp;Humidity;BMP_temperature;BMP_pressure;BME280_temperature;BME280_humidity;BME280_pressure;Samples;Min_cycle;Max_cycle;Signal;HPM_P1;HPM_P2
2023/01/14 00:00:17;;;;;;;19.80;3.50;;;;;;;;;;5061161;28;20082;-76
2023/01/14 00:02:43;;;;;;;20.63;5.32;;;;;;;;;;5058328;28;20033;-76
2023/01/14 00:05:09;;;;;;;25.63;5.70;;;;;;;;;;5062417;28;20032;-76
2023/01/14 00:07:35;;;;;;;28.05;7.47;;;;;;;;;;5059485;28;20052;-80
2023/01/14 00:10:01;;;;;;;28.73;4.80;;;;;;;;;;5054902;28;20024;-75
2023/01/14 00:12:27;;;;;;;24.35;4.78;;;;;;;;;;5059903;28;20701;-74
2023/01/14 00:14:53;;;;;;;21.90;3.15;;;;;;;;;;5064296;28;20037;-75
2023/01/14 00:17:19;;;;;;;29.45;4.22;;;;;;;;;;5060408;28;20413;-76
2023/01/14 00:19:45;;;;;;;15.35;2.97;;;;;;;;;;5065622;28;20123;-77
2023/01/14 00:22:11;;;;;;;20.83;3.55;;;;;;;;;;5067888;28;20111;-77
2023/01/14 00:24:37;;;;;;;22.13;4.25;;;;;;;;;;5062951;28;20368;-77
2023/01/14 00:27:03;;;;;;;26.77;3.78;;;;;;;;;;5060888;28;20032;-77
2023/01/14 00:29:30;;;;;;;28.33;4.20;;;;;;;;;;5060657;28;20032;-77
2023/01/14 00:32:01;;;;;;;27.80;4.18;;;;;;;;;;5065979;28;20021;-77
2023/01/14 00:34:28;;;;;;;24.45;3.60;;;;;;;;;;5065247;28;20532;-77
2023/01/14 00:36:54;;;;;;;24.85;3.13;;;;;;;;;;5064714;28;20036;-77
2023/01/14 00:39:20;;;;;;;23.20;4.15;;;;;;;;;;5063174;28;20044;-77
2023/01/14 00:41:46;;;;;;;27.92;3.13;;;;;;;;;;5064190;28;20462;-77
2023/01/14 00:44:12;;;;;;;18.27;4.43;;;;;;;;;;5044909;28;20041;-77
2023/01/14 00:46:39;;;;;;;17.35;4.10;;;;;;;;;;5063299;28;20162;-77
2023/01/14 00:49:07;;;;;;;21.17;3.88;;;;;;;;;;5063327;28;20025;-77
2023/01/14 00:51:34;;;;;;;19.15;3.35;;;;;;;;;;5064848;28;20104;-74
2023/01/14 00:54:00;;;;;;;24.98;4.65;;;;;;;;;;5065029;28;20524;-75
2023/01/14 00:56:27;;;;;;;17.30;3.50;;;;;;;;;;5066269;28;20531;-75
2023/01/14 00:58:53;;;;;;;23.75;4.45;;;;;;;;;;5066176;28;20036;-75
2023/01/14 01:01:19;;;;;;;23.80;3.40;;;;;;;;;;5059394;28;20078;-75
2023/01/14 01:03:53;;;;;;;23.67;2.92;;;;;;;;;;5064911;28;20023;-75
2023/01/14 01:06:20;;;;;;;24.98;3.80;;;;;;;;;;5065505;28;20036;-76
2023/01/14 01:08:46;;;;;;;36.20;4.97;;;;;;;;;;5060086;28;20055;-75
2023/01/14 01:11:12;;;;;;;32.47;3.70;;;;;;;;;;5059076;28;20039;-75
2023/01/14 01:13:38;;;;;;;29.75;4.25;;;;;;;;;;5064439;28;20037;-75
2023/01/14 01:16:06;;;;;;;27.00;3.13;;;;;;;;;;5062892;28;20396;-75
2023/01/14 01:18:32;;;;;;;26.73;4.18;;;;;;;;;;5064533;28;20032;-75
2023/01/14 01:21:16;;;;;;;26.85;5.03;;;;;;;;;;5061470;28;20037;-76
2023/01/14 01:23:43;;;;;;;18.48;3.53;;;;;;;;;;5048152;28;20079;-75
2023/01/14 01:26:11;;;;;;;31.38;4.22;;;;;;;;;;5062220;28;20036;-75
2023/01/14 01:28:37;;;;;;;31.50;5.43;;;;;;;;;;5064421;28;20024;-75
2023/01/14 01:31:04;;;;;;;31.95;5.75;;;;;;;;;;5062790;28;20028;-75
2023/01/14 01:33:30;;;;;;;31.30;4.53;;;;;;;;;;5062887;28;20039;-74
2023/01/14 01:36:01;;;;;;;32.55;5.00;;;;;;;;;;5064076;28;20404;-75
2023/01/14 01:38:27;;;;;;;37.17;6.68;;;;;;;;;;5065730;28;20346;-74
2023/01/14 01:40:53;;;;;;;27.60;3.70;;;;;;;;;;5065029;28;20039;-75
2023/01/14 01:43:20;;;;;;;21.42;4.75;;;;;;;;;;5047308;28;20033;-75
2023/01/14 01:45:47;;;;;;;25.83;3.13;;;;;;;;;;5059648;28;20075;-75
2023/01/14 01:48:16;;;;;;;21.25;3.60;;;;;;;;;;5063852;28;20028;-74
2023/01/14 01:50:43;;;;;;;28.33;6.03;;;;;;;;;;5065280;28;20037;-74
2023/01/14 01:53:09;;;;;;;29.58;4.93;;;;;;;;;;5063232;28;20044;-74
2023/01/14 01:55:37;;;;;;;27.55;3.92;;;;;;;;;;5062820;28;20024;-75
2023/01/14 01:58:04;;;;;;;24.52;3.70;;;;;;;;;;5065043;28;20033;-75
2023/01/14 02:00:30;;;;;;;30.08;5.00;;;;;;;;;;5068613;28;20478;-74
2023/01/14 02:02:57;;;;;;;27.63;3.75;;;;;;;;;;5064566;28;20028;-74
2023/01/14 02:05:24;;;;;;;25.40;4.10;;;;;;;;;;5067132;28;20051;-75
2023/01/14 02:07:50;;;;;;;26.35;4.57;;;;;;;;;;5050784;28;20415;-75
2023/01/14 02:10:16;;;;;;;21.63;3.40;;;;;;;;;;5068717;28;20020;-75
2023/01/14 02:13:01;;;;;;;24.08;3.60;;;;;;;;;;5047100;28;20032;-74
2023/01/14 02:15:42;;;;;;;25.95;4.57;;;;;;;;;;5064358;28;20034;-74
2023/01/14 02:18:14;;;;;;;18.83;3.20;;;;;;;;;;5065193;28;20424;-74
2023/01/14 02:20:48;;;;;;;19.63;3.40;;;;;;;;;;5060134;28;20069;-74
2023/01/14 02:23:29;;;;;;;31.73;3.35;;;;;;;;;;5062796;28;20437;-74
2023/01/14 02:26:11;;;;;;;23.95;3.92;;;;;;;;;;5064443;28;20051;-74
2023/01/14 02:28:50;;;;;;;25.85;4.60;;;;;;;;;;5065525;28;20039;-75
2023/01/14 02:31:16;;;;;;;16.08;2.78;;;;;;;;;;5067841;28;20028;-73
2023/01/14 02:33:45;;;;;;;34.92;4.63;;;;;;;;;;5068096;28;20069;-74
2023/01/14 02:36:25;;;;;;;29.45;4.07;;;;;;;;;;5044307;28;20052;-74
2023/01/14 02:38:54;;;;;;;24.05;4.05;;;;;;;;;;5044219;28;20025;-74
2023/01/14 02:44:06;;;;;;;26.88;4.60;;;;;;;;;;5050587;28;20538;-74
2023/01/14 02:44:14;;;;;;;27.60;4.70;;;;;;;;;;5050579;28;20048;-74
2023/01/14 02:46:48;;;;;;;24.83;3.28;;;;;;;;;;5049168;28;20024;-74
2023/01/14 02:49:17;;;;;;;33.38;4.88;;;;;;;;;;5044670;28;20119;-74
2023/01/14 02:51:43;;;;;;;22.58;3.80;;;;;;;;;;5038056;28;20108;-74
2023/01/14 02:54:10;;;;;;;28.15;4.35;;;;;;;;;;5049632;28;20017;-74
2023/01/14 02:56:36;;;;;;;32.50;3.85;;;;;;;;;;5045075;28;20044;-74
2023/01/14 02:59:08;;;;;;;29.20;4.35;;;;;;;;;;5047725;28;20030;-75
2023/01/14 03:01:53;;;;;;;25.65;5.03;;;;;;;;;;5051520;28;20394;-74
2023/01/14 03:04:22;;;;;;;25.83;3.83;;;;;;;;;;5051354;28;20041;-75
2023/01/14 03:07:11;;;;;;;22.92;3.00;;;;;;;;;;5051670;28;20033;-75
2023/01/14 03:09:42;;;;;;;24.33;2.95;;;;;;;;;;5037580;28;20044;-75
2023/01/14 03:12:08;;;;;;;25.75;4.15;;;;;;;;;;5051964;28;20456;-75
2023/01/14 03:14:41;;;;;;;27.20;4.78;;;;;;;;;;5049456;28;20108;-74
2023/01/14 03:17:12;;;;;;;24.92;3.45;;;;;;;;;;5048899;28;20426;-74
2023/01/14 03:19:42;;;;;;;21.70;3.15;;;;;;;;;;5043458;28;20017;-74
2023/01/14 03:22:09;;;;;;;33.63;5.22;;;;;;;;;;5049088;28;20052;-74
2023/01/14 03:24:37;;;;;;;25.13;3.45;;;;;;;;;;5044929;28;20082;-74
2023/01/14 03:27:06;;;;;;;30.42;5.32;;;;;;;;;;5032439;28;20415;-74
2023/01/14 03:29:42;;;;;;;22.73;3.38;;;;;;;;;;5040128;28;20108;-74
2023/01/14 03:32:10;;;;;;;33.72;5.15;;;;;;;;;;5047019;28;20048;-74
2023/01/14 03:34:40;;;;;;;30.88;3.92;;;;;;;;;;5042266;28;20036;-74
2023/01/14 03:37:09;;;;;;;24.10;4.35;;;;;;;;;;5029463;28;20038;-74
2023/01/14 03:39:35;;;;;;;28.85;4.07;;;;;;;;;;5028759;28;20025;-74
2023/01/14 03:42:19;;;;;;;28.08;3.88;;;;;;;;;;5030225;28;20030;-74
2023/01/14 03:44:48;;;;;;;26.92;3.42;;;;;;;;;;5027991;28;20031;-74
2023/01/14 03:47:14;;;;;;;34.10;3.20;;;;;;;;;;5028413;28;20021;-74
2023/01/14 03:49:40;;;;;;;26.45;3.35;;;;;;;;;;5030849;28;20032;-74
2023/01/14 03:52:18;;;;;;;24.65;3.22;;;;;;;;;;5028239;28;20030;-74
2023/01/14 03:54:50;;;;;;;23.25;2.78;;;;;;;;;;5028770;28;20055;-74
2023/01/14 03:57:19;;;;;;;36.78;6.03;;;;;;;;;;5029659;28;20025;-74
2023/01/14 03:59:56;;;;;;;26.08;3.20;;;;;;;;;;5030017;28;20029;-74
2023/01/14 04:02:23;;;;;;;25.80;4.13;;;;;;;;;;5028960;28;20033;-74
2023/01/14 04:04:49;;;;;;;33.90;3.55;;;;;;;;;;5036538;28;20029;-75
2023/01/14 04:07:15;;;;;;;27.05;3.78;;;;;;;;;;5029635;28;20060;-74
2023/01/14 04:09:41;;;;;;;33.00;4.53;;;;;;;;;;5030027;28;20025;-74
2023/01/14 04:12:08;;;;;;;20.10;2.85;;;;;;;;;;5027892;28;20055;-74
2023/01/14 04:17:18;;;;;;;31.85;5.60;;;;;;;;;;5027668;28;20064;-74
2023/01/14 04:19:44;;;;;;;28.55;3.45;;;;;;;;;;5029928;28;20478;-73
2023/01/14 04:22:10;;;;;;;27.65;3.53;;;;;;;;;;5019880;28;20030;-74
2023/01/14 04:24:36;;;;;;;32.45;3.80;;;;;;;;;;5029353;28;20029;-73
2023/01/14 04:27:02;;;;;;;31.25;4.95;;;;;;;;;;5029425;28;20017;-74
2023/01/14 04:29:28;;;;;;;21.48;3.20;;;;;;;;;;5031334;28;20048;-73
2023/01/14 04:31:54;;;;;;;34.40;4.57;;;;;;;;;;5026278;28;20025;-76
2023/01/14 04:34:22;;;;;;;41.70;4.80;;;;;;;;;;5030429;28;20037;-74
2023/01/14 04:36:48;;;;;;;25.52;4.78;;;;;;;;;;5038876;28;20137;-74
2023/01/14 04:39:14;;;;;;;19.20;2.78;;;;;;;;;;5070155;28;20419;-73
2023/01/14 04:44:24;;;;;;;23.20;3.28;;;;;;;;;;5069731;28;20437;-73
2023/01/14 04:46:50;;;;;;;24.42;3.25;;;;;;;;;;5050360;28;20116;-73
2023/01/14 04:49:16;;;;;;;27.02;3.88;;;;;;;;;;5067157;28;20020;-73
2023/01/14 04:51:42;;;;;;;26.98;4.85;;;;;;;;;;5060229;28;20029;-76
2023/01/14 04:54:08;;;;;;;32.20;4.55;;;;;;;;;;5062244;28;20024;-75
2023/01/14 04:56:34;;;;;;;23.05;2.90;;;;;;;;;;5064948;28;20402;-76
2023/01/14 04:59:02;;;;;;;26.60;3.85;;;;;;;;;;5068330;28;20043;-77
2023/01/14 05:01:28;;;;;;;25.95;3.38;;;;;;;;;;5057321;28;20017;-76
2023/01/14 05:03:58;;;;;;;21.60;2.78;;;;;;;;;;5059183;28;20031;-76
2023/01/14 05:06:24;;;;;;;22.55;3.92;;;;;;;;;;5070569;28;20460;-76
2023/01/14 05:08:50;;;;;;;26.55;3.72;;;;;;;;;;5069487;28;20028;-77
2023/01/14 05:11:16;;;;;;;16.45;2.55;;;;;;;;;;5063960;28;20025;-76
2023/01/14 05:13:42;;;;;;;26.52;4.47;;;;;;;;;;5060725;28;20029;-76
2023/01/14 05:16:09;;;;;;;22.52;2.72;;;;;;;;;;5064456;28;20063;-76
2023/01/14 05:18:35;;;;;;;17.05;2.75;;;;;;;;;;5065957;28;20066;-74
2023/01/14 05:21:01;;;;;;;26.67;3.85;;;;;;;;;;5066449;28;20445;-75
2023/01/14 05:23:27;;;;;;;17.95;3.78;;;;;;;;;;5068882;28;20875;-76
2023/01/14 05:25:53;;;;;;;28.88;3.80;;;;;;;;;;5055581;28;20622;-76
2023/01/14 05:28:20;;;;;;;16.45;2.63;;;;;;;;;;5063312;28;20115;-77
2023/01/14 05:30:47;;;;;;;25.10;3.45;;;;;;;;;;5063462;28;20371;-76
2023/01/14 05:33:13;;;;;;;27.33;4.05;;;;;;;;;;5059383;28;20021;-76
2023/01/14 05:35:39;;;;;;;25.20;5.10;;;;;;;;;;5066995;28;20035;-75
2023/01/14 05:38:06;;;;;;;25.83;5.53;;;;;;;;;;5066078;28;20052;-75
2023/01/14 05:40:32;;;;;;;24.17;3.35;;;;;;;;;;5071283;28;20054;-76
2023/01/14 05:45:51;;;;;;;31.60;3.47;;;;;;;;;;5062696;28;20055;-75
2023/01/14 05:48:20;;;;;;;22.30;4.15;;;;;;;;;;5073626;28;20495;-75
2023/01/14 05:50:49;;;;;;;36.00;4.65;;;;;;;;;;5070665;28;20028;-76
2023/01/14 05:53:15;;;;;;;32.35;4.45;;;;;;;;;;5074418;28;20037;-75
2023/01/14 05:55:41;;;;;;;23.80;3.35;;;;;;;;;;5067577;28;20036;-73
2023/01/14 05:58:07;;;;;;;29.73;4.35;;;;;;;;;;5052693;28;20046;-73
2023/01/14 06:06:23;;;;;;;32.83;4.47;;;;;;;;;;5065964;28;20115;-77
2023/01/14 06:08:50;;;;;;;25.30;4.70;;;;;;;;;;5072967;28;20086;-76
2023/01/14 06:11:18;;;;;;;28.40;4.07;;;;;;;;;;5051590;28;20032;-76
2023/01/14 06:13:45;;;;;;;25.27;3.50;;;;;;;;;;5055409;28;20040;-76
2023/01/14 06:16:11;;;;;;;28.17;3.97;;;;;;;;;;5058337;28;20040;-76
2023/01/14 06:18:45;;;;;;;22.83;5.25;;;;;;;;;;5067343;28;20561;-75
2023/01/14 06:21:19;;;;;;;32.53;4.95;;;;;;;;;;5070248;28;20047;-75
2023/01/14 06:23:46;;;;;;;31.23;5.15;;;;;;;;;;5057794;28;20029;-75
2023/01/14 06:26:16;;;;;;;35.75;5.88;;;;;;;;;;5051175;28;20021;-75
2023/01/14 06:28:43;;;;;;;30.77;4.82;;;;;;;;;;5052412;28;20032;-75
2023/01/14 06:31:11;;;;;;;36.17;5.50;;;;;;;;;;5071578;28;20032;-73
2023/01/14 06:33:38;;;;;;;28.40;4.03;;;;;;;;;;5033889;28;20045;-75
2023/01/14 06:36:04;;;;;;;34.80;4.95;;;;;;;;;;5065599;28;20111;-76
2023/01/14 06:38:30;;;;;;;27.85;4.40;;;;;;;;;;5068639;28;20036;-77
2023/01/14 06:41:00;;;;;;;31.20;5.45;;;;;;;;;;5072711;28;20477;-76
2023/01/14 06:43:26;;;;;;;35.58;6.20;;;;;;;;;;5060288;28;20111;-76
2023/01/14 06:45:52;;;;;;;28.88;6.95;;;;;;;;;;5060300;28;20377;-76
2023/01/14 06:48:18;;;;;;;30.90;5.28;;;;;;;;;;5061464;28;20033;-74
2023/01/14 06:50:44;;;;;;;27.35;6.38;;;;;;;;;;5061791;28;20051;-74
2023/01/14 06:53:10;;;;;;;27.38;5.60;;;;;;;;;;5062833;28;20349;-74
2023/01/14 06:55:36;;;;;;;39.28;6.93;;;;;;;;;;5055249;28;20083;-75
2023/01/14 06:58:02;;;;;;;33.25;5.80;;;;;;;;;;5060526;28;20040;-75
2023/01/14 07:00:28;;;;;;;36.63;6.57;;;;;;;;;;5056232;28;21465;-75
2023/01/14 07:02:54;;;;;;;41.22;9.15;;;;;;;;;;5040256;28;20120;-77
2023/01/14 07:05:20;;;;;;;34.20;5.93;;;;;;;;;;5059065;28;20044;-76
2023/01/14 07:07:50;;;;;;;40.08;7.57;;;;;;;;;;5061865;28;20054;-78
2023/01/14 07:10:16;;;;;;;50.40;6.97;;;;;;;;;;5061984;28;20405;-75
2023/01/14 07:12:46;;;;;;;35.50;6.20;;;;;;;;;;5059929;28;20029;-75
2023/01/14 07:15:12;;;;;;;32.85;6.85;;;;;;;;;;5059931;28;20119;-75
2023/01/14 07:17:38;;;;;;;37.92;6.40;;;;;;;;;;5061124;28;20508;-74
2023/01/14 07:20:05;;;;;;;54.85;17.70;;;;;;;;;;5060114;28;20052;-74
2023/01/14 07:22:31;;;;;;;34.08;7.63;;;;;;;;;;5066034;28;20040;-74
2023/01/14 07:24:57;;;;;;;39.15;6.45;;;;;;;;;;5054614;28;20032;-75
2023/01/14 07:27:23;;;;;;;46.88;7.90;;;;;;;;;;5070703;28;20032;-75
2023/01/14 07:29:49;;;;;;;40.60;8.18;;;;;;;;;;5066581;28;20033;-72
2023/01/14 07:32:15;;;;;;;47.05;8.55;;;;;;;;;;5067026;28;20052;-73
2023/01/14 07:34:41;;;;;;;43.00;9.02;;;;;;;;;;5066402;28;20044;-73
2023/01/14 07:37:07;;;;;;;38.53;9.43;;;;;;;;;;5067045;28;20397;-74
2023/01/14 07:39:33;;;;;;;53.65;10.85;;;;;;;;;;5064535;28;20094;-74
2023/01/14 07:41:59;;;;;;;40.45;6.93;;;;;;;;;;5058304;28;20041;-73
2023/01/14 07:44:25;;;;;;;31.80;8.23;;;;;;;;;;5068638;28;20104;-73
2023/01/14 07:46:55;;;;;;;39.10;6.60;;;;;;;;;;5048324;28;20115;-74
2023/01/14 07:49:24;;;;;;;34.60;8.13;;;;;;;;;;5064901;28;20490;-73
2023/01/14 07:51:50;;;;;;;34.30;6.50;;;;;;;;;;5061778;28;20377;-73
2023/01/14 07:54:16;;;;;;;43.75;9.18;;;;;;;;;;5061939;28;20100;-75
2023/01/14 07:56:42;;;;;;;38.50;7.78;;;;;;;;;;5063370;28;20040;-74
2023/01/14 07:59:08;;;;;;;43.58;6.60;;;;;;;;;;5074426;28;20028;-74
2023/01/14 08:01:35;;;;;;;36.97;7.28;;;;;;;;;;5070516;28;20028;-74
2023/01/14 08:04:01;;;;;;;31.33;5.20;;;;;;;;;;5058999;28;20028;-76
2023/01/14 08:06:27;;;;;;;27.00;4.30;;;;;;;;;;5044498;28;20639;-76
2023/01/14 08:08:53;;;;;;;34.88;5.35;;;;;;;;;;5060966;28;20101;-79
2023/01/14 08:11:19;;;;;;;32.90;5.95;;;;;;;;;;5068334;28;20477;-76
2023/01/14 08:13:45;;;;;;;29.88;5.18;;;;;;;;;;5059751;28;20116;-76
2023/01/14 08:16:13;;;;;;;29.27;5.25;;;;;;;;;;5059484;28;20499;-76
2023/01/14 08:18:39;;;;;;;36.15;5.43;;;;;;;;;;5061010;28;20041;-76
2023/01/14 08:21:06;;;;;;;31.55;4.47;;;;;;;;;;5066163;28;20103;-76
2023/01/14 08:23:32;;;;;;;31.63;4.90;;;;;;;;;;5047151;28;20036;-76
2023/01/14 08:26:05;;;;;;;28.35;4.70;;;;;;;;;;5070836;28;20499;-75
2023/01/14 08:28:32;;;;;;;31.98;5.82;;;;;;;;;;5060253;28;20108;-75
2023/01/14 08:31:08;;;;;;;34.08;5.22;;;;;;;;;;5051127;28;20074;-76
2023/01/14 08:33:35;;;;;;;38.45;7.03;;;;;;;;;;5051803;28;20036;-76
2023/01/14 08:36:06;;;;;;;29.33;5.38;;;;;;;;;;5060177;28;20128;-76
2023/01/14 08:38:35;;;;;;;35.33;6.80;;;;;;;;;;5056471;28;20113;-76
2023/01/14 08:41:05;;;;;;;30.65;5.53;;;;;;;;;;5064285;28;20094;-76
2023/01/14 08:43:31;;;;;;;23.67;4.78;;;;;;;;;;5069460;28;20043;-76
2023/01/14 08:45:57;;;;;;;32.03;5.00;;;;;;;;;;5047488;28;20033;-75
2023/01/14 08:48:23;;;;;;;34.75;4.70;;;;;;;;;;5069676;28;20492;-76
2023/01/14 08:50:49;;;;;;;37.08;8.05;;;;;;;;;;5068147;28;20029;-77
2023/01/14 08:53:15;;;;;;;34.97;5.43;;;;;;;;;;5022526;28;20042;-79
2023/01/14 08:55:41;;;;;;;35.28;4.63;;;;;;;;;;5066263;28;20452;-79
2023/01/14 08:58:07;;;;;;;33.22;5.55;;;;;;;;;;5067049;28;20078;-78
2023/01/14 09:00:34;;;;;;;30.40;4.88;;;;;;;;;;5050155;28;20120;-78
2023/01/14 09:03:00;;;;;;;34.10;5.53;;;;;;;;;;5062293;28;20121;-77
2023/01/14 09:05:26;;;;;;;35.38;4.80;;;;;;;;;;5067721;28;20575;-77
2023/01/14 09:19:00;;;;;;;24.13;3.88;;;;;;;;;;5071469;28;20043;-77
2023/01/14 09:21:26;;;;;;;23.52;3.58;;;;;;;;;;5068780;28;20039;-76
2023/01/14 09:23:52;;;;;;;27.73;4.25;;;;;;;;;;5063051;28;20028;-76
2023/01/14 09:26:20;;;;;;;29.40;4.60;;;;;;;;;;5056264;28;20040;-77
2023/01/14 09:28:46;;;;;;;27.50;5.40;;;;;;;;;;5067252;28;20017;-76
2023/01/14 09:31:12;;;;;;;21.92;4.38;;;;;;;;;;5069887;28;20060;-76
2023/01/14 09:33:38;;;;;;;27.90;4.15;;;;;;;;;;5061627;28;20090;-76
2023/01/14 09:36:04;;;;;;;23.38;4.80;;;;;;;;;;5067259;28;20461;-77
2023/01/14 09:38:30;;;;;;;16.50;3.70;;;;;;;;;;5068598;28;20405;-77
2023/01/14 09:40:56;;;;;;;16.25;2.88;;;;;;;;;;5068553;28;20029;-77
2023/01/14 09:43:23;;;;;;;18.15;4.32;;;;;;;;;;5067995;28;20032;-77
2023/01/14 09:45:51;;;;;;;18.88;3.13;;;;;;;;;;5069369;28;20116;-77
2023/01/14 09:48:19;;;;;;;12.15;2.97;;;;;;;;;;5068440;28;20210;-77
2023/01/14 09:50:55;;;;;;;14.98;3.25;;;;;;;;;;5068176;28;20071;-77
2023/01/14 09:53:44;;;;;;;20.40;3.22;;;;;;;;;;5044277;28;20044;-77
2023/01/14 09:56:17;;;;;;;19.63;2.92;;;;;;;;;;5040497;28;20040;-76
2023/01/14 09:58:54;;;;;;;14.38;3.28;;;;;;;;;;5054691;28;20390;-77
2023/01/14 10:01:23;;;;;;;19.48;2.25;;;;;;;;;;5072620;28;20032;-76
2023/01/14 10:03:59;;;;;;;13.35;2.60;;;;;;;;;;5070995;28;20040;-76
2023/01/14 10:06:26;;;;;;;15.70;3.20;;;;;;;;;;5076826;28;20093;-77
2023/01/14 10:08:52;;;;;;;16.00;2.83;;;;;;;;;;5070527;28;20033;-76
2023/01/14 10:11:20;;;;;;;10.95;2.92;;;;;;;;;;5052599;28;20016;-76
2023/01/14 10:13:49;;;;;;;18.33;2.78;;;;;;;;;;5063459;28;20036;-77
2023/01/14 10:16:20;;;;;;;13.68;2.92;;;;;;;;;;5063743;28;20051;-76
2023/01/14 10:18:52;;;;;;;8.60;2.20;;;;;;;;;;5071370;28;20414;-77
2023/01/14 10:21:30;;;;;;;8.98;2.17;;;;;;;;;;5070423;28;20024;-77
2023/01/14 10:23:56;;;;;;;48.63;20.23;;;;;;;;;;5061897;28;20032;-78
2023/01/14 10:26:22;;;;;;;6.18;2.63;;;;;;;;;;5066999;28;20056;-80
2023/01/14 10:28:51;;;;;;;11.30;3.30;;;;;;;;;;5049325;28;20033;-78
2023/01/14 10:31:25;;;;;;;7.20;2.30;;;;;;;;;;5061770;28;20067;-77
2023/01/14 10:33:52;;;;;;;7.75;2.67;;;;;;;;;;5057966;28;20065;-77
2023/01/14 10:36:21;;;;;;;5.10;2.38;;;;;;;;;;5067315;28;20029;-77
2023/01/14 10:38:47;;;;;;;10.82;2.10;;;;;;;;;;5055697;28;20028;-77
2023/01/14 10:41:13;;;;;;;6.20;2.08;;;;;;;;;;5065873;28;20036;-78
2023/01/14 10:43:44;;;;;;;9.20;2.22;;;;;;;;;;5048734;28;20037;-78
2023/01/14 10:46:18;;;;;;;11.00;2.40;;;;;;;;;;5068319;28;20376;-77
2023/01/14 10:48:54;;;;;;;5.80;1.85;;;;;;;;;;5050521;28;20362;-77
2023/01/14 10:51:36;;;;;;;10.85;3.17;;;;;;;;;;5062508;28;20024;-77
2023/01/14 10:54:09;;;;;;;6.22;1.92;;;;;;;;;;5052799;28;20024;-79
2023/01/14 10:56:35;;;;;;;6.22;1.92;;;;;;;;;;5069437;28;20060;-77
2023/01/14 10:59:01;;;;;;;8.35;1.73;;;;;;;;;;5060964;28;20076;-78
2023/01/14 11:01:27;;;;;;;6.25;1.85;;;;;;;;;;5062378;28;20033;-77
2023/01/14 11:03:53;;;;;;;5.63;1.80;;;;;;;;;;5058726;28;20040;-78
2023/01/14 11:06:19;;;;;;;12.63;2.08;;;;;;;;;;5069270;28;20040;-78
2023/01/14 11:08:50;;;;;;;6.60;2.22;;;;;;;;;;5070508;28;20051;-80
2023/01/14 11:11:18;;;;;;;10.65;2.05;;;;;;;;;;5064715;28;20050;-77
2023/01/14 11:13:48;;;;;;;7.50;2.30;;;;;;;;;;5054082;28;20377;-78
2023/01/14 11:16:27;;;;;;;9.48;2.40;;;;;;;;;;5065135;28;20067;-78
2023/01/14 11:18:55;;;;;;;7.75;2.40;;;;;;;;;;5063821;28;20052;-78
2023/01/14 11:21:21;;;;;;;5.78;2.10;;;;;;;;;;5066789;28;20115;-78
2023/01/14 11:23:53;;;;;;;6.50;2.38;;;;;;;;;;5065922;28;20096;-78
2023/01/14 11:26:28;;;;;;;9.13;1.85;;;;;;;;;;5064479;28;20066;-78
2023/01/14 11:29:01;;;;;;;5.10;1.60;;;;;;;;;;5082646;28;20079;-77
2023/01/14 11:31:29;;;;;;;7.72;2.15;;;;;;;;;;5071660;28;20034;-77
2023/01/14 11:33:55;;;;;;;6.28;1.92;;;;;;;;;;5050861;28;23743;-77
2023/01/14 11:36:25;;;;;;;6.10;1.65;;;;;;;;;;5063615;28;20032;-79
2023/01/14 11:38:52;;;;;;;10.93;2.55;;;;;;;;;;5070286;28;20518;-78
2023/01/14 11:41:36;;;;;;;3.22;1.52;;;;;;;;;;5063626;28;20055;-78
2023/01/14 11:44:17;;;;;;;10.13;1.90;;;;;;;;;;5040357;28;21710;-77
2023/01/14 11:46:45;;;;;;;6.88;2.30;;;;;;;;;;5061517;28;20066;-77
2023/01/14 11:49:16;;;;;;;7.35;1.90;;;;;;;;;;5064780;28;20437;-78
2023/01/14 11:51:55;;;;;;;5.38;2.30;;;;;;;;;;5056917;28;20021;-78
2023/01/14 11:54:21;;;;;;;4.47;1.75;;;;;;;;;;5040847;28;20078;-78
2023/01/14 11:56:48;;;;;;;3.75;1.63;;;;;;;;;;5065617;28;20037;-79
2023/01/14 11:59:26;;;;;;;6.60;2.22;;;;;;;;;;5063162;28;20343;-79
2023/01/14 12:02:11;;;;;;;5.70;2.30;;;;;;;;;;5061281;28;20032;-80
2023/01/14 12:04:46;;;;;;;9.27;2.00;;;;;;;;;;5058317;28;20031;-80
2023/01/14 12:07:25;;;;;;;8.18;1.83;;;;;;;;;;5060849;28;20040;-79
2023/01/14 12:09:57;;;;;;;6.25;2.25;;;;;;;;;;5061926;28;20025;-81
2023/01/14 12:12:26;;;;;;;4.90;1.70;;;;;;;;;;5060820;28;20033;-80
2023/01/14 12:17:53;;;;;;;4.77;1.30;;;;;;;;;;5062040;28;20055;-80
2023/01/14 12:20:23;;;;;;;5.78;1.65;;;;;;;;;;5057947;28;20381;-80
2023/01/14 12:22:56;;;;;;;3.83;1.55;;;;;;;;;;5056067;28;20399;-79
2023/01/14 12:25:29;;;;;;;4.97;1.30;;;;;;;;;;5059710;28;20028;-80
2023/01/14 12:28:04;;;;;;;2.83;1.23;;;;;;;;;;5058388;28;20123;-80
2023/01/14 12:30:49;;;;;;;5.97;1.60;;;;;;;;;;5060185;28;20078;-80
2023/01/14 12:33:38;;;;;;;8.20;1.65;;;;;;;;;;5062275;28;20039;-81
2023/01/14 12:36:23;;;;;;;4.53;1.80;;;;;;;;;;5053866;28;20049;-83
2023/01/14 12:47:32;;;;;;;2.80;1.38;;;;;;;;;;5063710;28;20043;-80
2023/01/14 12:49:58;;;;;;;2.65;0.85;;;;;;;;;;5071079;28;20029;-80
2023/01/14 12:52:34;;;;;;;4.97;1.27;;;;;;;;;;5051051;28;20032;-80
2023/01/14 12:55:01;;;;;;;1.40;1.00;;;;;;;;;;5045745;28;20119;-83
2023/01/14 12:57:28;;;;;;;7.28;1.90;;;;;;;;;;5070568;28;20086;-84
2023/01/14 13:00:05;;;;;;;2.20;0.93;;;;;;;;;;5042812;28;20485;-81
2023/01/14 13:02:34;;;;;;;2.33;1.10;;;;;;;;;;5066492;28;20035;-81
2023/01/14 13:05:04;;;;;;;2.95;1.30;;;;;;;;;;5059249;28;20465;-80
2023/01/14 13:07:31;;;;;;;2.47;1.20;;;;;;;;;;5067160;28;20040;-80
2023/01/14 13:09:59;;;;;;;2.55;1.08;;;;;;;;;;5070715;28;20108;-80
2023/01/14 13:12:28;;;;;;;2.88;1.10;;;;;;;;;;5056337;28;20037;-79
2023/01/14 13:14:56;;;;;;;4.30;1.40;;;;;;;;;;5068236;28;20029;-79
2023/01/14 13:17:32;;;;;;;4.53;1.77;;;;;;;;;;5070780;28;20152;-79
2023/01/14 13:19:59;;;;;;;5.18;1.40;;;;;;;;;;5059172;28;20064;-80
2023/01/14 13:22:45;;;;;;;3.17;1.50;;;;;;;;;;5050749;28;20039;-79
2023/01/14 13:25:15;;;;;;;3.42;1.27;;;;;;;;;;5050819;28;20071;-80
2023/01/14 13:27:42;;;;;;;3.35;1.20;;;;;;;;;;5070971;28;20119;-79
2023/01/14 13:30:32;;;;;;;1.17;1.02;;;;;;;;;;5060582;28;20040;-79
2023/01/14 13:33:06;;;;;;;3.35;1.70;;;;;;;;;;5041773;28;20127;-79
2023/01/14 13:35:32;;;;;;;2.63;1.70;;;;;;;;;;5066944;28;20037;-79
2023/01/14 13:38:00;;;;;;;5.97;2.10;;;;;;;;;;5066740;28;20040;-79
2023/01/14 13:40:28;;;;;;;3.20;1.40;;;;;;;;;;5034077;28;20049;-80
2023/01/14 13:43:06;;;;;;;3.53;1.40;;;;;;;;;;5050692;28;20039;-81
2023/01/14 13:45:33;;;;;;;2.25;1.60;;;;;;;;;;5038100;28;20033;-79
2023/01/14 13:48:07;;;;;;;2.25;1.38;;;;;;;;;;5048434;28;20083;-79
2023/01/14 13:50:33;;;;;;;3.03;1.38;;;;;;;;;;5049350;28;20033;-80
2023/01/14 13:53:25;;;;;;;4.55;1.15;;;;;;;;;;5049782;28;20040;-78
2023/01/14 13:55:55;;;;;;;3.47;1.20;;;;;;;;;;5036868;28;20073;-79
2023/01/14 13:58:22;;;;;;;4.35;1.60;;;;;;;;;;5046036;28;20290;-80
2023/01/14 14:01:08;;;;;;;1.95;1.17;;;;;;;;;;5053006;28;20518;-80
2023/01/14 14:03:36;;;;;;;3.05;1.70;;;;;;;;;;5048404;28;20029;-80
2023/01/14 14:06:29;;;;;;;1.73;1.63;;;;;;;;;;5041879;28;20033;-79
2023/01/14 14:09:11;;;;;;;4.53;1.33;;;;;;;;;;5049518;28;20041;-79
2023/01/14 14:11:57;;;;;;;1.45;1.08;;;;;;;;;;5053579;28;20474;-79
2023/01/14 14:14:27;;;;;;;1.70;0.88;;;;;;;;;;5032521;28;20457;-79
2023/01/14 14:16:59;;;;;;;1.30;1.20;;;;;;;;;;5033424;28;20312;-80
2023/01/14 14:19:40;;;;;;;2.15;0.95;;;;;;;;;;5034147;28;20133;-79
2023/01/14 14:22:12;;;;;;;0.98;0.90;;;;;;;;;;5051953;28;20025;-79
2023/01/14 14:24:41;;;;;;;1.67;0.70;;;;;;;;;;5050449;28;20544;-79
2023/01/14 14:27:08;;;;;;;1.25;0.82;;;;;;;;;;5043862;28;20032;-81
2023/01/14 14:29:37;;;;;;;1.90;1.40;;;;;;;;;;5050905;28;20036;-81
2023/01/14 14:32:09;;;;;;;4.55;1.98;;;;;;;;;;5047328;28;20091;-80
2023/01/14 14:34:35;;;;;;;0.70;0.70;;;;;;;;;;5051017;28;20025;-79
2023/01/14 14:37:07;;;;;;;1.20;1.10;;;;;;;;;;5053829;28;20127;-79
2023/01/14 14:39:35;;;;;;;2.25;0.82;;;;;;;;;;5051285;28;20096;-80
2023/01/14 14:42:15;;;;;;;3.45;1.25;;;;;;;;;;5066347;28;20035;-79
2023/01/14 14:44:51;;;;;;;1.90;0.90;;;;;;;;;;5059236;28;20020;-79
2023/01/14 14:47:24;;;;;;;0.70;0.57;;;;;;;;;;5060066;28;20020;-79
2023/01/14 14:49:50;;;;;;;2.47;0.77;;;;;;;;;;5063469;28;20125;-77
2023/01/14 14:52:19;;;;;;;0.68;0.68;;;;;;;;;;5059474;28;20044;-79
2023/01/14 14:54:46;;;;;;;1.52;0.75;;;;;;;;;;5070420;28;20017;-80
2023/01/14 14:57:15;;;;;;;1.50;0.70;;;;;;;;;;5062494;28;20041;-80
2023/01/14 14:59:41;;;;;;;1.25;0.70;;;;;;;;;;5052484;28;20052;-79
2023/01/14 15:02:20;;;;;;;1.50;0.70;;;;;;;;;;5068828;28;20499;-80
2023/01/14 15:04:47;;;;;;;1.17;0.77;;;;;;;;;;5048021;28;20116;-81
2023/01/14 15:07:13;;;;;;;1.15;0.90;;;;;;;;;;5052066;28;20071;-81
2023/01/14 15:09:39;;;;;;;2.15;1.70;;;;;;;;;;5053156;28;20029;-82
2023/01/14 15:12:10;;;;;;;2.75;1.90;;;;;;;;;;5063963;28;20099;-78
2023/01/14 15:14:36;;;;;;;3.35;2.55;;;;;;;;;;5062175;28;20468;-76
2023/01/14 15:17:02;;;;;;;2.38;1.20;;;;;;;;;;5070309;28;20388;-82
2023/01/14 15:19:30;;;;;;;3.00;1.98;;;;;;;;;;5065757;28;20040;-81
2023/01/14 15:22:00;;;;;;;0.98;0.98;;;;;;;;;;5070959;28;20029;-82